createdAt,value
2018-05-12T00:00:26.578Z,81.90
2018-05-12T00:02:52.524Z,81.92
2018-05-12T00:05:18.453Z,82.56
2018-05-12T00:07:44.401Z,82.50
2018-05-12T00:10:10.341Z,83.00
2018-05-12T00:12:36.286Z,82.91
2018-05-12T00:15:02.213Z,83.25
2018-05-12T00:17:28.137Z,83.35
2018-05-12T00:19:54.061Z,83.85
2018-05-12T00:22:19.983Z,84.13
2018-05-12T00:24:45.913Z,83.60
2018-05-12T00:27:11.826Z,83.81
2018-05-12T00:29:37.756Z,83.55
2018-05-12T00:32:03.662Z,83.63
2018-05-12T00:34:29.584Z,83.84
2018-05-12T00:36:55.536Z,83.54
2018-05-12T00:39:21.458Z,83.92
2018-05-12T00:41:47.378Z,83.54
2018-05-12T00:44:13.301Z,83.65
2018-05-12T00:46:39.246Z,83.85
2018-05-12T00:49:05.200Z,83.99
2018-05-12T00:51:31.137Z,83.86
2018-05-12T00:53:57.076Z,84.23
2018-05-12T00:56:23.037Z,83.80
2018-05-12T00:58:48.950Z,84.27
2018-05-12T01:01:14.900Z,84.43
2018-05-12T01:03:40.830Z,85.07
2018-05-12T01:06:06.765Z,85.05
2018-05-12T01:08:32.723Z,85.23
2018-05-12T01:10:58.641Z,85.15
2018-05-12T01:13:24.584Z,85.24
2018-05-12T01:15:50.500Z,85.18
2018-05-12T01:18:16.450Z,85.44
2018-05-12T01:20:42.380Z,85.35
2018-05-12T01:23:08.332Z,85.30
2018-05-12T01:25:34.255Z,85.34
2018-05-12T01:28:00.172Z,86.02
2018-05-12T01:30:26.141Z,86.41
2018-05-12T01:32:52.066Z,86.62
2018-05-12T01:35:18.014Z,86.40
2018-05-12T01:37:43.924Z,86.31
2018-05-12T01:40:09.837Z,86.48
2018-05-12T01:42:35.757Z,86.58
2018-05-12T01:45:01.683Z,86.50
2018-05-12T01:47:27.607Z,86.93
2018-05-12T01:49:53.531Z,87.17
2018-05-12T01:52:19.457Z,87.28
2018-05-12T01:54:45.360Z,87.56
2018-05-12T01:57:11.284Z,87.94
2018-05-12T01:59:37.215Z,87.93
2018-05-12T02:02:03.142Z,88.09
2018-05-12T02:04:29.066Z,88.29
2018-05-12T02:06:54.966Z,88.27
2018-05-12T02:09:20.899Z,88.37
2018-05-12T02:11:46.810Z,88.71
2018-05-12T02:14:12.721Z,88.68
2018-05-12T02:16:38.630Z,88.67
2018-05-12T02:19:04.551Z,88.85
2018-05-12T02:21:30.564Z,89.21
2018-05-12T02:23:56.480Z,89.11
2018-05-12T02:26:22.433Z,89.13
2018-05-12T02:28:48.359Z,89.11
2018-05-12T02:31:14.278Z,89.10
2018-05-12T02:33:40.234Z,89.38
2018-05-12T02:36:06.137Z,89.11
2018-05-12T02:38:32.061Z,89.39
2018-05-12T02:40:58.013Z,89.83
2018-05-12T02:43:23.937Z,89.88
2018-05-12T02:45:49.867Z,89.87
2018-05-12T02:48:15.771Z,90.52
2018-05-12T02:50:41.695Z,90.54
2018-05-12T02:53:07.632Z,90.22
2018-05-12T02:55:33.555Z,90.36
2018-05-12T02:57:59.507Z,90.17
2018-05-12T03:00:25.437Z,90.14
2018-05-12T03:02:51.349Z,90.41
2018-05-12T03:05:17.241Z,90.04
2018-05-12T03:07:43.174Z,89.95
2018-05-12T03:10:09.089Z,89.96
2018-05-12T03:12:35.080Z,89.81
2018-05-12T03:15:00.934Z,89.81
2018-05-12T03:17:26.857Z,89.59
2018-05-12T03:19:52.765Z,89.76
2018-05-12T03:22:18.687Z,89.83
2018-05-12T03:24:44.587Z,90.04
2018-05-12T03:27:10.526Z,90.10
2018-05-12T03:29:36.438Z,89.90
2018-05-12T03:32:02.345Z,90.10
2018-05-12T03:34:28.260Z,90.23
2018-05-12T03:36:54.187Z,90.10
2018-05-12T03:39:20.189Z,90.95
2018-05-12T03:41:46.048Z,91.01
2018-05-12T03:44:11.980Z,90.82
2018-05-12T03:46:37.894Z,90.78
2018-05-12T03:49:03.840Z,90.93
2018-05-12T03:51:29.748Z,90.85
2018-05-12T03:53:55.664Z,90.89
2018-05-12T03:56:21.606Z,91.00
2018-05-12T03:58:47.538Z,91.02
2018-05-12T04:01:13.464Z,90.90
2018-05-12T04:03:39.389Z,90.89
2018-05-12T04:06:17.530Z,90.81
2018-05-12T04:08:56.580Z,90.93
2018-05-12T04:11:34.714Z,90.97
2018-05-12T04:14:00.634Z,91.35
2018-05-12T04:16:26.557Z,91.23
2018-05-12T04:18:52.463Z,91.32
2018-05-12T04:21:18.385Z,91.45
2018-05-12T04:23:44.295Z,91.23
2018-05-12T04:26:10.197Z,91.12
2018-05-12T04:28:38.741Z,91.07
2018-05-12T04:31:04.660Z,90.87
2018-05-12T04:33:30.562Z,90.68
2018-05-12T04:35:56.495Z,91.02
2018-05-12T04:38:22.417Z,90.24
2018-05-12T04:40:48.344Z,90.55
2018-05-12T04:43:14.280Z,90.51
2018-05-12T04:45:40.191Z,90.30
2018-05-12T04:48:06.111Z,90.04
2018-05-12T04:50:32.033Z,89.82
2018-05-12T04:52:57.969Z,89.72
2018-05-12T04:55:23.884Z,90.10
2018-05-12T04:57:49.817Z,89.43
2018-05-12T05:00:15.733Z,89.69
2018-05-12T05:02:41.654Z,90.02
2018-05-12T05:05:07.577Z,89.94
2018-05-12T05:07:33.511Z,89.77
2018-05-12T05:09:59.409Z,90.06
2018-05-12T05:12:25.330Z,90.31
2018-05-12T05:14:51.256Z,89.92
2018-05-12T05:17:17.181Z,89.66
2018-05-12T05:19:43.117Z,89.46
2018-05-12T05:22:09.043Z,89.53
2018-05-12T05:24:34.980Z,89.41
2018-05-12T05:27:00.902Z,88.90
2018-05-12T05:29:26.824Z,88.71
2018-05-12T05:31:52.749Z,88.59
2018-05-12T05:34:18.679Z,88.38
2018-05-12T05:36:44.600Z,88.60
2018-05-12T05:39:10.535Z,88.04
2018-05-12T05:41:36.532Z,88.11
2018-05-12T05:44:02.475Z,87.61
2018-05-12T05:46:28.421Z,87.53
2018-05-12T05:48:54.373Z,86.87
2018-05-12T05:51:20.315Z,86.59
2018-05-12T05:53:46.225Z,85.81
2018-05-12T05:56:12.151Z,85.84
2018-05-12T05:58:38.091Z,85.33
2018-05-12T06:01:04.611Z,84.75
2018-05-12T06:03:30.566Z,84.39
2018-05-12T06:05:56.482Z,84.18
2018-05-12T06:08:22.432Z,83.97
2018-05-12T06:10:48.347Z,83.80
2018-05-12T06:13:14.255Z,84.14
2018-05-12T06:15:40.195Z,83.40
2018-05-12T06:18:06.238Z,82.99
2018-05-12T06:20:32.080Z,82.80
2018-05-12T06:22:58.052Z,82.75
2018-05-12T06:25:23.988Z,82.70
2018-05-12T06:27:49.939Z,83.41
2018-05-12T06:30:15.878Z,83.41
2018-05-12T06:32:41.802Z,83.07
2018-05-12T06:35:07.721Z,82.68
2018-05-12T06:37:33.637Z,82.85
2018-05-12T06:39:59.608Z,82.47
2018-05-12T06:42:26.261Z,82.49
2018-05-12T06:44:52.227Z,82.16
2018-05-12T06:47:18.178Z,82.56
2018-05-12T06:49:44.084Z,82.79
2018-05-12T06:52:10.025Z,83.04
2018-05-12T06:54:35.966Z,82.88
2018-05-12T06:57:01.884Z,82.53
2018-05-12T06:59:27.802Z,82.30
2018-05-12T07:01:53.741Z,81.92
2018-05-12T07:04:19.651Z,82.23
2018-05-12T07:06:45.575Z,82.22
2018-05-12T07:09:11.509Z,82.08
2018-05-12T07:11:37.453Z,81.80
2018-05-12T07:14:03.387Z,80.75
2018-05-12T07:16:29.322Z,80.17
2018-05-12T07:18:55.255Z,79.92
2018-05-12T07:21:21.175Z,80.03
2018-05-12T07:23:47.113Z,79.88
2018-05-12T07:26:13.026Z,80.31
2018-05-12T07:28:38.950Z,79.65
2018-05-12T07:31:04.865Z,79.13
2018-05-12T07:33:30.799Z,79.60
2018-05-12T07:35:56.724Z,79.64
2018-05-12T07:38:22.654Z,79.62
2018-05-12T07:40:48.596Z,79.01
2018-05-12T07:43:14.528Z,79.47
2018-05-12T07:45:40.458Z,79.63
2018-05-12T07:48:06.767Z,79.88
2018-05-12T07:50:32.711Z,79.44
2018-05-12T07:52:58.654Z,79.17
2018-05-12T07:55:24.595Z,79.50
2018-05-12T07:57:50.522Z,79.05
2018-05-12T08:00:16.464Z,77.64
2018-05-12T08:02:42.394Z,77.59
2018-05-12T08:05:08.340Z,78.27
2018-05-12T08:07:34.267Z,77.94
2018-05-12T08:10:00.184Z,77.07
2018-05-12T08:12:26.115Z,75.98
2018-05-12T08:14:52.058Z,76.22
2018-05-12T08:17:18.003Z,76.36
2018-05-12T08:19:43.927Z,76.29
2018-05-12T08:22:09.870Z,76.06
2018-05-12T08:24:35.787Z,75.52
2018-05-12T08:27:01.710Z,75.57
2018-05-12T08:29:27.667Z,76.26
2018-05-12T08:31:53.615Z,75.51
2018-05-12T08:34:19.541Z,75.38
2018-05-12T08:36:45.467Z,75.18
2018-05-12T08:39:11.412Z,75.41
2018-05-12T08:41:37.351Z,75.34
2018-05-12T08:44:03.307Z,74.88
2018-05-12T08:46:29.227Z,75.43
2018-05-12T08:48:55.169Z,74.91
2018-05-12T08:51:21.115Z,74.18
2018-05-12T08:53:47.041Z,74.79
2018-05-12T08:56:12.945Z,75.30
2018-05-12T08:58:38.871Z,74.74
2018-05-12T09:01:04.773Z,74.16
2018-05-12T09:03:30.697Z,74.09
2018-05-12T09:05:57.401Z,73.93
2018-05-12T09:08:23.320Z,74.88
2018-05-12T09:10:49.237Z,72.63
2018-05-12T09:13:15.186Z,71.66
2018-05-12T09:15:41.127Z,71.72
2018-05-12T09:18:07.042Z,72.29
2018-05-12T09:20:33.002Z,71.16
2018-05-12T09:22:58.988Z,72.40
2018-05-12T09:25:24.870Z,72.41
2018-05-12T09:27:50.825Z,71.21
2018-05-12T09:30:16.774Z,72.04
2018-05-12T09:32:42.712Z,72.59
2018-05-12T09:35:08.614Z,72.82
2018-05-12T09:37:34.555Z,71.65
2018-05-12T09:40:00.486Z,70.95
2018-05-12T09:42:26.504Z,69.82
2018-05-12T09:44:52.412Z,70.76
2018-05-12T09:47:18.383Z,71.30
2018-05-12T09:49:44.290Z,69.53
2018-05-12T09:52:10.213Z,69.57
2018-05-12T09:54:36.154Z,68.28
2018-05-12T09:57:02.056Z,68.27
2018-05-12T09:59:28.085Z,68.97
2018-05-12T10:01:53.937Z,68.49
2018-05-12T10:04:19.854Z,68.24
2018-05-12T10:06:45.768Z,69.09
2018-05-12T10:09:11.736Z,68.69
2018-05-12T10:11:37.665Z,68.32
2018-05-12T10:14:03.645Z,67.61
2018-05-12T10:16:29.553Z,67.44
2018-05-12T10:18:55.503Z,67.25
2018-05-12T10:21:21.435Z,66.40
2018-05-12T10:23:47.362Z,65.74
2018-05-12T10:26:13.294Z,66.04
2018-05-12T10:28:39.232Z,65.51
2018-05-12T10:31:05.193Z,65.59
2018-05-12T10:33:31.133Z,65.18
2018-05-12T10:35:57.078Z,65.83
2018-05-12T10:38:23.002Z,64.89
2018-05-12T10:40:48.938Z,64.47
2018-05-12T10:43:14.866Z,63.21
2018-05-12T10:45:40.814Z,63.69
2018-05-12T10:48:06.721Z,63.38
2018-05-12T10:50:32.658Z,62.98
2018-05-12T10:52:58.601Z,62.16
2018-05-12T10:55:24.519Z,61.13
2018-05-12T10:57:50.442Z,60.77
2018-05-12T11:00:16.357Z,61.68
2018-05-12T11:02:42.378Z,60.31
2018-05-12T11:05:08.304Z,59.94
2018-05-12T11:07:49.165Z,60.29
2018-05-12T11:10:15.092Z,60.41
2018-05-12T11:12:41.032Z,61.42
2018-05-12T11:15:06.971Z,62.50
2018-05-12T11:17:32.889Z,62.65
2018-05-12T11:19:58.809Z,63.17
2018-05-12T11:22:24.700Z,64.22
2018-05-12T11:24:50.623Z,63.97
2018-05-12T11:27:16.547Z,63.61
2018-05-12T11:29:42.499Z,64.04
2018-05-12T11:32:08.453Z,64.06
2018-05-12T11:34:34.403Z,64.90
2018-05-12T11:37:00.315Z,65.12
2018-05-12T11:39:26.270Z,63.82
2018-05-12T11:41:52.185Z,63.34
2018-05-12T11:44:18.095Z,62.65
2018-05-12T11:46:44.044Z,61.85
2018-05-12T11:49:09.971Z,61.75
2018-05-12T11:51:35.910Z,62.54
2018-05-12T11:54:01.951Z,60.96
2018-05-12T11:56:27.810Z,58.53
2018-05-12T11:58:53.768Z,56.11
2018-05-12T12:01:19.716Z,55.47
2018-05-12T12:03:45.734Z,55.27
2018-05-12T12:06:11.632Z,56.25
2018-05-12T12:08:37.576Z,57.71
2018-05-12T12:11:03.508Z,55.96
2018-05-12T12:13:29.454Z,53.45
2018-05-12T12:15:55.374Z,55.08
2018-05-12T12:18:21.340Z,53.63
2018-05-12T12:20:47.286Z,54.32
2018-05-12T12:23:13.247Z,56.37
2018-05-12T12:25:39.180Z,55.29
2018-05-12T12:28:05.151Z,54.04
2018-05-12T12:30:31.101Z,56.34
2018-05-12T12:32:57.058Z,54.45
2018-05-12T12:35:22.969Z,52.67
2018-05-12T12:37:48.925Z,51.70
2018-05-12T12:40:14.855Z,50.08
2018-05-12T12:42:40.764Z,49.24
2018-05-12T12:45:06.815Z,49.10
2018-05-12T12:47:32.691Z,50.27
2018-05-12T12:49:58.657Z,52.18
2018-05-12T12:52:24.589Z,52.23
2018-05-12T12:54:50.515Z,52.63
2018-05-12T12:57:16.439Z,53.94
2018-05-12T12:59:42.358Z,53.89
2018-05-12T13:02:08.291Z,52.02
2018-05-12T13:04:34.231Z,51.79
2018-05-12T13:07:00.151Z,51.45
2018-05-12T13:09:26.087Z,52.55
2018-05-12T13:11:52.035Z,52.14
2018-05-12T13:14:17.970Z,53.49
2018-05-12T13:16:43.896Z,54.68
2018-05-12T13:19:09.807Z,54.29
2018-05-12T13:21:35.857Z,55.85
2018-05-12T13:24:01.768Z,56.39
2018-05-12T13:26:27.676Z,56.50
2018-05-12T13:28:53.635Z,55.44
2018-05-12T13:31:19.570Z,55.60
2018-05-12T13:33:45.495Z,54.76
2018-05-12T13:36:11.431Z,52.22
2018-05-12T13:38:37.411Z,51.07
2018-05-12T13:41:03.323Z,48.12
2018-05-12T13:43:29.271Z,46.96
2018-05-12T13:45:55.384Z,46.09
2018-05-12T13:48:21.309Z,46.50
2018-05-12T13:50:47.265Z,45.86
2018-05-12T13:53:13.183Z,44.95
2018-05-12T13:55:39.198Z,44.73
2018-05-12T13:58:05.062Z,45.75
2018-05-12T14:00:31.053Z,44.86
2018-05-12T14:02:56.986Z,46.39
2018-05-12T14:05:22.958Z,48.29
2018-05-12T14:07:48.901Z,47.71
2018-05-12T14:10:14.853Z,47.09
2018-05-12T14:12:40.767Z,46.12
2018-05-12T14:15:06.706Z,45.97
2018-05-12T14:17:32.662Z,45.63
2018-05-12T14:19:58.597Z,45.14
2018-05-12T14:22:24.579Z,46.09
2018-05-12T14:24:50.491Z,46.96
2018-05-12T14:27:16.461Z,44.83
2018-05-12T14:29:42.387Z,44.27
2018-05-12T14:32:08.318Z,46.11
2018-05-12T14:34:34.304Z,44.55
2018-05-12T14:37:00.246Z,46.55
2018-05-12T14:39:26.201Z,45.85
2018-05-12T14:41:52.127Z,45.77
2018-05-12T14:44:18.051Z,47.03
2018-05-12T14:46:43.971Z,45.38
2018-05-12T14:49:09.908Z,44.72
2018-05-12T14:51:35.841Z,44.59
2018-05-12T14:54:01.780Z,45.78
2018-05-12T14:56:27.692Z,45.12
2018-05-12T14:58:53.620Z,47.35
2018-05-12T15:01:19.554Z,47.33
2018-05-12T15:03:45.523Z,46.31
2018-05-12T15:06:11.453Z,44.78
2018-05-12T15:08:37.388Z,45.61
2018-05-12T15:11:03.329Z,45.97
2018-05-12T15:13:29.241Z,46.62
2018-05-12T15:15:55.182Z,46.69
2018-05-12T15:18:21.100Z,48.80
2018-05-12T15:20:47.050Z,48.57
2018-05-12T15:23:12.989Z,49.06
2018-05-12T15:25:38.939Z,49.72
2018-05-12T15:28:04.878Z,49.56
2018-05-12T15:30:30.829Z,49.87
2018-05-12T15:32:56.758Z,49.55
2018-05-12T15:35:22.740Z,48.82
2018-05-12T15:37:48.679Z,47.92
2018-05-12T15:40:14.643Z,47.82
2018-05-12T15:42:40.587Z,48.58
2018-05-12T15:45:06.942Z,47.39
2018-05-12T15:47:32.887Z,47.49
2018-05-12T15:49:58.900Z,47.03
2018-05-12T15:52:24.829Z,45.80
2018-05-12T15:54:50.769Z,43.75
2018-05-12T15:57:16.730Z,43.17
2018-05-12T15:59:42.663Z,42.58
2018-05-12T16:02:08.575Z,43.16
2018-05-12T16:04:34.546Z,44.41
2018-05-12T16:07:00.467Z,43.66
2018-05-12T16:09:26.412Z,42.32
2018-05-12T16:11:52.331Z,42.22
2018-05-12T16:14:18.301Z,42.45
2018-05-12T16:16:44.250Z,40.78
2018-05-12T16:19:10.216Z,43.75
2018-05-12T16:21:36.213Z,43.12
2018-05-12T16:24:02.133Z,43.08
2018-05-12T16:26:28.091Z,44.70
2018-05-12T16:28:54.025Z,45.70
2018-05-12T16:31:20.004Z,43.34
2018-05-12T16:33:45.914Z,46.80
2018-05-12T16:36:11.850Z,47.95
2018-05-12T16:38:37.780Z,50.19
2018-05-12T16:41:03.746Z,50.79
2018-05-12T16:43:29.676Z,51.87
2018-05-12T16:45:55.604Z,52.02
2018-05-12T16:48:21.515Z,52.62
2018-05-12T16:50:47.619Z,53.47
2018-05-12T16:53:13.411Z,54.56
2018-05-12T16:55:39.354Z,54.80
2018-05-12T16:58:05.288Z,55.62
2018-05-12T17:00:31.224Z,55.97
2018-05-12T17:02:57.162Z,55.69
2018-05-12T17:05:23.084Z,54.93
2018-05-12T17:07:49.053Z,55.47
2018-05-12T17:10:14.986Z,54.62
2018-05-12T17:12:40.967Z,54.65
2018-05-12T17:15:06.891Z,55.19
2018-05-12T17:17:32.863Z,55.04
2018-05-12T17:19:58.778Z,54.72
2018-05-12T17:22:24.725Z,55.93
2018-05-12T17:24:50.663Z,56.13
2018-05-12T17:27:16.595Z,56.09
2018-05-12T17:29:42.590Z,56.86
2018-05-12T17:32:08.519Z,56.74
2018-05-12T17:34:34.465Z,57.62
2018-05-12T17:37:00.388Z,57.79
2018-05-12T17:39:26.348Z,57.43
2018-05-12T17:41:52.312Z,58.18
2018-05-12T17:44:18.339Z,58.71
2018-05-12T17:46:44.228Z,59.07
2018-05-12T17:49:11.014Z,59.59
2018-05-12T17:51:36.982Z,59.72
2018-05-12T17:54:02.910Z,60.00
2018-05-12T17:56:28.866Z,59.99
2018-05-12T17:58:54.816Z,60.21
2018-05-12T18:01:20.754Z,60.33
2018-05-12T18:03:46.748Z,60.71
2018-05-12T18:06:15.028Z,61.15
2018-05-12T18:08:40.957Z,61.51
2018-05-12T18:11:07.842Z,61.34
2018-05-12T18:13:33.772Z,61.49
2018-05-12T18:15:59.722Z,62.27
2018-05-12T18:18:25.694Z,61.91
2018-05-12T18:20:51.592Z,62.19
2018-05-12T18:23:17.537Z,62.24
2018-05-12T18:25:43.474Z,62.39
2018-05-12T18:28:09.462Z,62.87
2018-05-12T18:30:35.403Z,63.21
2018-05-12T18:33:01.359Z,63.51
2018-05-12T18:35:27.302Z,63.79
2018-05-12T18:37:53.246Z,63.81
2018-05-12T18:40:19.163Z,63.65
2018-05-12T18:42:45.101Z,64.10
2018-05-12T18:45:11.017Z,64.48
2018-05-12T18:47:36.967Z,64.59
2018-05-12T18:50:02.961Z,64.81
2018-05-12T18:52:28.871Z,65.03
2018-05-12T18:54:54.937Z,65.00
2018-05-12T18:57:20.869Z,65.28
2018-05-12T18:59:46.819Z,65.52
2018-05-12T19:02:12.757Z,65.38
2018-05-12T19:04:38.698Z,65.71
2018-05-12T19:07:04.654Z,65.77
2018-05-12T19:09:30.601Z,66.31
2018-05-12T19:11:56.581Z,66.53
2018-05-12T19:14:22.540Z,66.58
2018-05-12T19:16:48.492Z,66.61
2018-05-12T19:19:14.433Z,66.90
2018-05-12T19:21:40.393Z,66.92
2018-05-12T19:24:06.375Z,67.07
2018-05-12T19:26:32.340Z,67.24
2018-05-12T19:28:58.436Z,67.45
2018-05-12T19:31:24.394Z,67.37
2018-05-12T19:33:50.342Z,67.71
2018-05-12T19:36:16.325Z,67.67
2018-05-12T19:38:42.339Z,68.19
2018-05-12T19:41:08.307Z,68.51
2018-05-12T19:43:34.292Z,69.06
2018-05-12T19:46:00.222Z,69.08
2018-05-12T19:48:26.204Z,68.92
2018-05-12T19:50:52.126Z,69.22
2018-05-12T19:53:18.094Z,69.06
2018-05-12T19:55:44.056Z,69.47
2018-05-12T19:58:10.008Z,69.54
2018-05-12T20:00:35.958Z,69.35
2018-05-12T20:03:01.941Z,69.40
2018-05-12T20:05:27.868Z,69.75
2018-05-12T20:07:53.843Z,69.75
2018-05-12T20:10:19.849Z,69.62
2018-05-12T20:12:45.849Z,69.83
2018-05-12T20:15:11.811Z,69.87
2018-05-12T20:17:37.758Z,70.16
2018-05-12T20:20:03.831Z,70.16
2018-05-12T20:22:29.766Z,70.56
2018-05-12T20:24:55.781Z,70.14
2018-05-12T20:27:21.749Z,70.45
2018-05-12T20:29:48.689Z,70.73
2018-05-12T20:32:14.637Z,70.86
2018-05-12T20:34:40.591Z,70.75
2018-05-12T20:37:06.618Z,70.96
2018-05-12T20:39:32.520Z,71.15
2018-05-12T20:41:58.517Z,70.99
2018-05-12T20:44:24.465Z,71.19
2018-05-12T20:46:50.458Z,71.07
2018-05-12T20:49:16.383Z,71.30
2018-05-12T20:51:42.428Z,71.55
2018-05-12T20:54:08.400Z,71.73
2018-05-12T20:56:34.330Z,71.84
2018-05-12T20:59:00.255Z,71.87
2018-05-12T21:01:26.193Z,71.86
2018-05-12T21:03:52.189Z,71.82
2018-05-12T21:06:18.120Z,72.22
2018-05-12T21:08:44.073Z,72.37
2018-05-12T21:11:10.011Z,72.59
2018-05-12T21:13:35.971Z,72.50
2018-05-12T21:16:01.912Z,72.50
2018-05-12T21:18:27.902Z,72.77
2018-05-12T21:20:53.838Z,72.85
2018-05-12T21:23:19.774Z,72.51
2018-05-12T21:25:45.704Z,73.08
2018-05-12T21:28:11.647Z,73.10
2018-05-12T21:30:37.581Z,73.13
2018-05-12T21:33:03.498Z,73.38
2018-05-12T21:35:29.451Z,73.82
2018-05-12T21:37:55.422Z,73.62
2018-05-12T21:40:21.346Z,73.78
2018-05-12T21:42:47.260Z,73.50
2018-05-12T21:45:13.211Z,73.81
2018-05-12T21:47:39.922Z,73.83
2018-05-12T21:50:07.480Z,73.86
2018-05-12T21:52:33.427Z,73.98
2018-05-12T21:54:59.334Z,73.64
2018-05-12T21:57:25.285Z,73.62
2018-05-12T21:59:51.251Z,74.00
2018-05-12T22:02:17.219Z,73.92
2018-05-12T22:04:43.141Z,73.83
2018-05-12T22:07:09.073Z,73.90
2018-05-12T22:09:35.007Z,73.78
2018-05-12T22:12:00.915Z,73.63
2018-05-12T22:14:26.845Z,73.72
2018-05-12T22:16:52.791Z,74.26
2018-05-12T22:19:18.717Z,74.16
2018-05-12T22:21:44.665Z,74.23
2018-05-12T22:24:10.601Z,74.36
2018-05-12T22:26:36.524Z,74.24
2018-05-12T22:29:02.454Z,74.72
2018-05-12T22:31:28.389Z,74.81
2018-05-12T22:33:54.394Z,74.59
2018-05-12T22:36:20.316Z,74.75
2018-05-12T22:38:46.269Z,74.49
2018-05-12T22:41:12.218Z,74.39
2018-05-12T22:43:38.134Z,74.49
2018-05-12T22:46:04.062Z,75.07
2018-05-12T22:48:29.987Z,75.43
2018-05-12T22:50:55.922Z,75.36
2018-05-12T22:53:21.826Z,75.32
2018-05-12T22:55:47.726Z,75.86
2018-05-12T22:58:13.666Z,76.29
2018-05-12T23:00:39.596Z,76.80
2018-05-12T23:03:05.508Z,77.37
2018-05-12T23:05:31.453Z,77.23
2018-05-12T23:07:57.352Z,77.17
2018-05-12T23:10:23.285Z,77.65
2018-05-12T23:12:49.227Z,77.86
2018-05-12T23:15:15.166Z,77.79
2018-05-12T23:17:41.126Z,78.18
2018-05-12T23:20:07.044Z,78.25
2018-05-12T23:22:32.964Z,78.40
2018-05-12T23:24:58.949Z,78.65
2018-05-12T23:27:24.831Z,78.43
2018-05-12T23:29:50.742Z,78.17
2018-05-12T23:32:16.701Z,78.46
2018-05-12T23:34:42.641Z,78.46
2018-05-12T23:37:08.581Z,78.62
2018-05-12T23:39:34.523Z,78.29
2018-05-12T23:42:00.443Z,78.53
2018-05-12T23:44:26.378Z,79.33
2018-05-12T23:46:52.283Z,79.32
2018-05-12T23:49:18.209Z,79.45
2018-05-12T23:51:44.143Z,79.93
2018-05-12T23:54:10.064Z,80.55
2018-05-12T23:56:35.989Z,80.76
2018-05-12T23:59:01.937Z,80.66
